createdAt,value
2018-09-22T00:02:12.956Z,10.50
2018-09-22T00:04:42.004Z,10.50
2018-09-22T00:07:11.105Z,10.50
2018-09-22T00:09:40.056Z,10.50
2018-09-22T00:12:09.178Z,10.50
2018-09-22T00:14:38.345Z,10.50
2018-09-22T00:17:07.574Z,10.40
2018-09-22T00:19:36.492Z,10.40
2018-09-22T00:22:05.568Z,10.30
2018-09-22T00:24:34.626Z,10.30
2018-09-22T00:27:03.695Z,10.30
2018-09-22T00:29:33.162Z,10.30
2018-09-22T00:32:02.658Z,10.30
2018-09-22T00:34:31.931Z,10.30
2018-09-22T00:37:01.503Z,10.30
2018-09-22T00:39:30.786Z,10.30
2018-09-22T00:42:00.035Z,10.20
2018-09-22T00:44:29.405Z,10.20
2018-09-22T00:46:58.666Z,10.20
2018-09-22T00:49:27.929Z,10.20
2018-09-22T00:51:57.107Z,10.20
2018-09-22T00:54:26.232Z,10.20
2018-09-22T00:56:55.304Z,10.20
2018-09-22T00:59:24.435Z,10.20
2018-09-22T01:01:53.514Z,10.20
2018-09-22T01:04:22.836Z,10.20
2018-09-22T01:06:56.672Z,10.20
2018-09-22T01:09:25.890Z,10.30
2018-09-22T01:11:55.217Z,10.20
2018-09-22T01:14:24.371Z,10.20
2018-09-22T01:16:53.621Z,10.30
2018-09-22T01:19:22.904Z,10.20
2018-09-22T01:21:52.162Z,10.20
2018-09-22T01:24:21.374Z,10.20
2018-09-22T01:26:50.596Z,10.20
2018-09-22T01:29:19.704Z,10.10
2018-09-22T01:31:49.203Z,10.00
2018-09-22T01:34:18.406Z,10.00
2018-09-22T01:36:47.509Z,10.00
2018-09-22T01:39:16.835Z,10.00
2018-09-22T01:41:46.030Z,10.00
2018-09-22T01:44:15.071Z,9.90
2018-09-22T01:46:44.183Z,9.90
2018-09-22T01:49:13.282Z,9.90
2018-09-22T01:51:42.520Z,9.80
2018-09-22T01:54:11.791Z,9.80
2018-09-22T01:56:40.843Z,9.90
2018-09-22T01:59:10.072Z,9.90
2018-09-22T02:01:39.164Z,9.80
2018-09-22T02:04:08.767Z,9.70
2018-09-22T02:06:37.981Z,9.70
2018-09-22T02:09:08.759Z,9.80
2018-09-22T02:11:37.815Z,9.80
2018-09-22T02:14:07.497Z,9.80
2018-09-22T02:16:36.755Z,9.70
2018-09-22T02:19:06.206Z,9.70
2018-09-22T02:21:35.343Z,9.70
2018-09-22T02:24:04.408Z,9.70
2018-09-22T02:26:33.844Z,9.70
2018-09-22T02:29:03.362Z,9.60
2018-09-22T02:31:32.458Z,9.60
2018-09-22T02:34:01.758Z,9.60
2018-09-22T02:36:30.925Z,9.60
2018-09-22T02:38:59.992Z,9.60
2018-09-22T02:41:30.250Z,9.60
2018-09-22T02:43:59.601Z,9.60
2018-09-22T02:46:32.147Z,9.60
2018-09-22T02:49:01.512Z,9.60
2018-09-22T02:51:30.541Z,9.60
2018-09-22T02:53:59.992Z,9.60
2018-09-22T02:56:29.208Z,9.60
2018-09-22T02:58:58.467Z,9.60
2018-09-22T03:01:27.700Z,9.60
2018-09-22T03:03:56.984Z,9.60
2018-09-22T03:06:26.304Z,9.50
2018-09-22T03:08:55.523Z,9.60
2018-09-22T03:11:24.564Z,9.60
2018-09-22T03:13:53.826Z,9.60
2018-09-22T03:16:27.742Z,9.60
2018-09-22T03:18:57.575Z,9.60
2018-09-22T03:21:27.121Z,9.60
2018-09-22T03:23:56.245Z,9.60
2018-09-22T03:26:25.331Z,9.60
2018-09-22T03:28:54.639Z,9.60
2018-09-22T03:31:30.157Z,9.60
2018-09-22T03:33:59.592Z,9.60
2018-09-22T03:36:28.869Z,9.60
2018-09-22T03:38:58.058Z,9.60
2018-09-22T03:41:28.231Z,9.60
2018-09-22T03:43:57.391Z,9.60
2018-09-22T03:46:26.518Z,9.60
2018-09-22T03:48:55.943Z,9.70
2018-09-22T03:51:25.295Z,9.70
2018-09-22T03:53:54.319Z,9.70
2018-09-22T03:56:23.584Z,9.70
2018-09-22T03:58:52.872Z,9.70
2018-09-22T04:01:22.267Z,9.80
2018-09-22T04:03:51.251Z,9.80
2018-09-22T04:06:20.280Z,9.90
2018-09-22T04:08:49.379Z,9.90
2018-09-22T04:11:18.349Z,9.90
2018-09-22T04:13:47.325Z,9.90
2018-09-22T04:16:16.471Z,9.90
2018-09-22T04:18:45.417Z,9.90
2018-09-22T04:21:14.536Z,9.90
2018-09-22T04:23:43.554Z,10.00
2018-09-22T04:26:13.049Z,10.00
2018-09-22T04:28:42.084Z,10.00
2018-09-22T04:31:11.217Z,10.00
2018-09-22T04:33:40.281Z,10.00
2018-09-22T04:36:09.435Z,10.00
2018-09-22T04:38:38.495Z,10.00
2018-09-22T04:41:07.668Z,10.00
2018-09-22T04:43:36.728Z,10.00
2018-09-22T04:46:05.656Z,9.90
2018-09-22T04:48:34.673Z,10.00
2018-09-22T04:51:03.779Z,10.00
2018-09-22T04:53:34.017Z,10.00
2018-09-22T04:56:03.545Z,10.00
2018-09-22T04:58:32.750Z,10.00
2018-09-22T05:01:02.252Z,10.00
2018-09-22T05:03:31.451Z,9.90
2018-09-22T05:06:00.746Z,9.90
2018-09-22T05:08:29.983Z,9.90
2018-09-22T05:10:59.157Z,9.90
2018-09-22T05:13:28.539Z,9.90
2018-09-22T05:15:57.973Z,9.90
2018-09-22T05:18:27.463Z,9.90
2018-09-22T05:20:56.824Z,9.90
2018-09-22T05:23:26.161Z,9.90
2018-09-22T05:25:55.226Z,9.80
2018-09-22T05:28:25.735Z,9.90
2018-09-22T05:30:55.323Z,9.80
2018-09-22T05:33:24.616Z,9.80
2018-09-22T05:35:53.929Z,9.80
2018-09-22T05:38:23.140Z,9.80
2018-09-22T05:40:52.844Z,9.80
2018-09-22T05:43:22.915Z,9.90
2018-09-22T05:45:52.227Z,9.80
2018-09-22T05:48:21.255Z,9.80
2018-09-22T05:50:50.580Z,9.80
2018-09-22T05:53:19.808Z,9.80
2018-09-22T05:55:49.315Z,9.80
2018-09-22T05:58:18.855Z,9.80
2018-09-22T06:00:48.295Z,9.80
2018-09-22T06:03:21.956Z,9.80
2018-09-22T06:05:51.617Z,9.90
2018-09-22T06:08:20.650Z,9.90
2018-09-22T06:10:49.919Z,9.90
2018-09-22T06:13:19.576Z,10.00
2018-09-22T06:15:48.849Z,10.00
2018-09-22T06:18:18.416Z,10.10
2018-09-22T06:20:47.989Z,10.20
2018-09-22T06:23:17.171Z,10.20
2018-09-22T06:25:46.641Z,10.30
2018-09-22T06:28:17.122Z,10.30
2018-09-22T06:30:46.475Z,10.40
2018-09-22T06:33:17.863Z,10.60
2018-09-22T06:35:49.660Z,10.70
2018-09-22T06:38:19.037Z,10.60
2018-09-22T06:40:48.214Z,10.60
2018-09-22T06:43:17.207Z,10.70
2018-09-22T06:45:46.525Z,10.70
2018-09-22T06:48:15.806Z,10.90
2018-09-22T06:50:45.082Z,11.10
2018-09-22T06:53:14.324Z,11.30
2018-09-22T06:55:44.595Z,11.30
2018-09-22T06:58:13.615Z,11.30
2018-09-22T07:00:42.533Z,11.30
2018-09-22T07:03:13.100Z,11.40
2018-09-22T07:05:43.686Z,11.60
2018-09-22T07:08:12.624Z,11.90
2018-09-22T07:10:41.971Z,11.90
2018-09-22T07:13:11.235Z,11.90
2018-09-22T07:15:40.229Z,12.30
2018-09-22T07:18:09.208Z,12.10
2018-09-22T07:20:38.155Z,12.30
2018-09-22T07:23:12.549Z,12.60
2018-09-22T07:25:42.414Z,12.70
2018-09-22T07:28:11.660Z,12.80
2018-09-22T07:30:45.536Z,12.70
2018-09-22T07:33:14.814Z,12.70
2018-09-22T07:35:43.966Z,13.00
2018-09-22T07:38:15.403Z,13.20
2018-09-22T07:40:44.998Z,12.90
2018-09-22T07:43:14.610Z,12.90
2018-09-22T07:45:44.134Z,13.00
2018-09-22T07:48:16.924Z,13.10
2018-09-22T07:50:46.132Z,13.00
2018-09-22T07:53:16.539Z,13.20
2018-09-22T07:55:45.890Z,13.10
2018-09-22T07:58:14.950Z,13.20
2018-09-22T08:00:45.724Z,13.50
2018-09-22T08:03:16.178Z,13.30
2018-09-22T08:05:47.077Z,13.30
2018-09-22T08:08:18.259Z,13.30
2018-09-22T08:10:47.758Z,13.30
2018-09-22T08:13:19.515Z,13.20
2018-09-22T08:15:48.681Z,13.40
2018-09-22T08:18:17.985Z,13.40
2018-09-22T08:20:53.131Z,13.40
2018-09-22T08:23:23.644Z,13.50
2018-09-22T08:25:53.208Z,13.60
2018-09-22T08:28:22.560Z,13.70
2018-09-22T08:30:52.067Z,13.70
2018-09-22T08:33:22.430Z,13.80
2018-09-22T08:35:55.519Z,13.90
2018-09-22T08:38:25.198Z,14.00
2018-09-22T08:40:54.873Z,14.40
2018-09-22T08:43:23.992Z,14.50
2018-09-22T08:45:53.276Z,14.40
2018-09-22T08:48:23.881Z,14.50
2018-09-22T08:50:54.284Z,15.10
2018-09-22T08:53:23.631Z,15.00
2018-09-22T08:55:52.993Z,15.10
2018-09-22T08:58:24.980Z,15.00
2018-09-22T09:00:54.383Z,15.00
2018-09-22T09:03:24.015Z,14.90
2018-09-22T09:05:54.791Z,15.10
2018-09-22T09:08:24.059Z,15.10
2018-09-22T09:10:53.371Z,15.20
2018-09-22T09:13:23.005Z,15.50
2018-09-22T09:15:52.281Z,15.80
2018-09-22T09:18:21.858Z,16.00
2018-09-22T09:20:51.229Z,15.80
2018-09-22T09:23:24.533Z,15.90
2018-09-22T09:25:53.864Z,15.80
2018-09-22T09:28:23.340Z,15.70
2018-09-22T09:30:55.800Z,15.70
2018-09-22T09:33:25.429Z,16.00
2018-09-22T09:35:55.080Z,16.20
2018-09-22T09:38:24.586Z,16.20
2018-09-22T09:40:53.774Z,16.40
2018-09-22T09:43:23.023Z,16.40
2018-09-22T09:45:52.557Z,16.70
2018-09-22T09:48:21.868Z,16.90
2018-09-22T09:50:51.205Z,17.00
2018-09-22T09:53:21.092Z,17.10
2018-09-22T09:55:50.726Z,17.20
2018-09-22T09:58:20.253Z,17.20
2018-09-22T10:00:49.541Z,17.30
2018-09-22T10:03:19.210Z,17.30
2018-09-22T10:05:52.107Z,17.40
2018-09-22T10:08:21.376Z,17.50
2018-09-22T10:10:50.808Z,17.40
2018-09-22T10:13:19.985Z,17.70
2018-09-22T10:15:49.067Z,17.80
2018-09-22T10:18:20.448Z,17.80
2018-09-22T10:20:49.741Z,17.70
2018-09-22T10:23:19.118Z,17.80
2018-09-22T10:25:48.385Z,17.90
2018-09-22T10:28:18.908Z,18.00
2018-09-22T10:30:49.479Z,17.90
2018-09-22T10:33:18.694Z,18.10
2018-09-22T10:35:48.167Z,17.90
2018-09-22T10:38:19.637Z,18.20
2018-09-22T10:40:48.767Z,18.10
2018-09-22T10:43:18.147Z,18.10
2018-09-22T10:45:47.637Z,18.30
2018-09-22T10:48:17.019Z,18.30
2018-09-22T10:50:47.667Z,18.30
2018-09-22T10:53:20.235Z,18.30
2018-09-22T10:55:49.447Z,18.30
2018-09-22T10:58:18.583Z,18.30
2018-09-22T11:00:48.051Z,18.20
2018-09-22T11:03:17.361Z,18.30
2018-09-22T11:05:47.080Z,18.20
2018-09-22T11:08:16.703Z,18.40
2018-09-22T11:10:46.593Z,18.30
2018-09-22T11:13:16.142Z,18.00
2018-09-22T11:15:45.758Z,18.30
2018-09-22T11:18:15.117Z,18.60
2018-09-22T11:20:44.307Z,18.90
2018-09-22T11:23:13.807Z,18.70
2018-09-22T11:25:47.582Z,19.00
2018-09-22T11:28:22.804Z,19.30
2018-09-22T11:30:59.514Z,19.20
2018-09-22T11:33:28.843Z,19.20
2018-09-22T11:35:57.722Z,19.00
2018-09-22T11:38:30.761Z,18.90
2018-09-22T11:41:00.134Z,19.00
2018-09-22T11:43:29.178Z,19.40
2018-09-22T11:45:58.397Z,19.30
2018-09-22T11:48:27.552Z,19.40
2018-09-22T11:50:56.564Z,19.30
2018-09-22T11:53:25.382Z,19.30
2018-09-22T11:55:54.501Z,19.30
2018-09-22T11:58:23.633Z,19.30
2018-09-22T12:00:52.639Z,19.30
2018-09-22T12:03:22.176Z,19.00
2018-09-22T12:05:55.253Z,19.10
2018-09-22T12:08:24.359Z,19.10
2018-09-22T12:10:53.544Z,19.00
2018-09-22T12:13:23.502Z,18.80
2018-09-22T12:15:52.720Z,18.80
2018-09-22T12:18:21.833Z,18.80
2018-09-22T12:20:51.048Z,18.90
2018-09-22T12:23:20.155Z,18.80
2018-09-22T12:25:49.288Z,18.70
2018-09-22T12:28:18.700Z,18.80
2018-09-22T12:30:48.205Z,18.70
2018-09-22T12:33:17.448Z,18.60
2018-09-22T12:35:46.707Z,18.50
2018-09-22T12:38:16.218Z,18.60
2018-09-22T12:40:45.450Z,18.70
2018-09-22T12:43:14.830Z,18.80
2018-09-22T12:45:44.057Z,18.70
2018-09-22T12:48:15.320Z,18.80
2018-09-22T12:50:44.692Z,18.80
2018-09-22T12:53:15.110Z,18.90
2018-09-22T12:55:45.344Z,18.70
2018-09-22T12:58:20.240Z,18.50
2018-09-22T13:00:49.734Z,18.40
2018-09-22T13:03:19.078Z,18.50
2018-09-22T13:05:53.209Z,18.60
2018-09-22T13:08:22.441Z,18.30
2018-09-22T13:10:51.724Z,18.30
2018-09-22T13:13:23.694Z,18.20
2018-09-22T13:15:58.310Z,18.10
2018-09-22T13:18:33.931Z,18.20
2018-09-22T13:21:07.484Z,18.10
2018-09-22T13:23:40.980Z,18.20
2018-09-22T13:26:17.430Z,18.10
2018-09-22T13:28:53.904Z,18.00
2018-09-22T13:31:27.120Z,17.80
2018-09-22T13:33:56.262Z,17.60
2018-09-22T13:36:26.520Z,17.60
2018-09-22T13:38:55.963Z,17.70
2018-09-22T13:41:25.419Z,17.80
2018-09-22T13:43:54.770Z,17.80
2018-09-22T13:46:25.450Z,17.90
2018-09-22T13:48:54.826Z,18.00
2018-09-22T13:51:23.982Z,18.00
2018-09-22T13:53:53.399Z,17.90
2018-09-22T13:56:22.576Z,17.90
2018-09-22T13:58:51.710Z,18.00
2018-09-22T14:01:26.997Z,18.00
2018-09-22T14:03:56.138Z,18.20
2018-09-22T14:06:25.355Z,18.30
2018-09-22T14:08:54.677Z,18.30
2018-09-22T14:11:24.236Z,18.40
2018-09-22T14:13:53.957Z,18.40
2018-09-22T14:16:24.209Z,18.60
2018-09-22T14:18:54.527Z,18.50
2018-09-22T14:21:30.730Z,18.60
2018-09-22T14:24:00.261Z,18.50
2018-09-22T14:26:29.482Z,18.50
2018-09-22T14:29:16.281Z,18.40
2018-09-22T14:31:51.823Z,18.40
2018-09-22T14:34:28.580Z,18.30
2018-09-22T14:37:04.002Z,18.40
2018-09-22T14:39:39.954Z,18.40
2018-09-22T14:42:18.015Z,18.40
2018-09-22T14:44:54.816Z,18.20
2018-09-22T14:47:33.169Z,18.20
2018-09-22T14:50:10.269Z,18.20
2018-09-22T14:52:46.690Z,18.10
2018-09-22T14:55:22.796Z,18.10
2018-09-22T14:57:59.664Z,17.90
2018-09-22T15:00:46.380Z,17.90
2018-09-22T15:03:22.867Z,17.90
2018-09-22T15:05:58.541Z,17.60
2018-09-22T15:08:34.191Z,17.40
2018-09-22T15:11:09.924Z,17.30
2018-09-22T15:13:46.013Z,17.30
2018-09-22T15:16:21.534Z,17.20
2018-09-22T15:18:57.129Z,17.10
2018-09-22T15:21:32.795Z,17.00
2018-09-22T15:24:09.406Z,17.00
2018-09-22T15:26:48.846Z,16.90
2018-09-22T15:29:38.507Z,16.90
2018-09-22T15:32:16.634Z,16.90
2018-09-22T15:34:53.242Z,16.90
2018-09-22T15:37:29.518Z,16.80
2018-09-22T15:40:05.132Z,16.70
2018-09-22T15:42:41.974Z,16.70
2018-09-22T15:45:18.055Z,16.70
2018-09-22T15:47:53.380Z,16.70
2018-09-22T15:50:28.777Z,16.60
2018-09-22T15:53:04.276Z,16.60
2018-09-22T15:55:40.013Z,16.60
2018-09-22T15:58:21.294Z,16.50
2018-09-22T16:00:59.497Z,16.40
2018-09-22T16:03:34.679Z,16.40
2018-09-22T16:06:12.098Z,16.30
2018-09-22T16:08:47.928Z,16.10
2018-09-22T16:11:22.653Z,16.00
2018-09-22T16:13:51.802Z,16.00
2018-09-22T16:16:20.782Z,15.90
2018-09-22T16:18:49.873Z,15.70
2018-09-22T16:21:18.866Z,15.60
2018-09-22T16:23:47.983Z,15.50
2018-09-22T16:26:16.791Z,15.50
2018-09-22T16:28:51.793Z,15.40
2018-09-22T16:31:21.716Z,15.20
2018-09-22T16:33:50.997Z,14.90
2018-09-22T16:36:43.967Z,14.70
2018-09-22T16:39:13.430Z,14.80
2018-09-22T16:41:47.000Z,14.80
2018-09-22T16:44:20.784Z,14.80
2018-09-22T16:46:50.185Z,14.80
2018-09-22T16:49:19.651Z,14.80
2018-09-22T16:51:51.357Z,14.70
2018-09-22T16:54:20.703Z,14.50
2018-09-22T16:56:50.216Z,14.50
2018-09-22T16:59:19.593Z,14.50
2018-09-22T17:01:50.082Z,14.50
2018-09-22T17:04:24.586Z,14.30
2018-09-22T17:06:53.828Z,14.30
2018-09-22T17:09:25.750Z,14.20
2018-09-22T17:11:55.593Z,14.00
2018-09-22T17:14:26.379Z,13.90
2018-09-22T17:16:55.954Z,13.90
2018-09-22T17:19:25.632Z,14.00
2018-09-22T17:21:54.985Z,13.80
2018-09-22T17:24:25.568Z,13.80
2018-09-22T17:26:54.710Z,13.80
2018-09-22T17:29:24.331Z,13.60
2018-09-22T17:31:53.699Z,13.60
2018-09-22T17:34:23.117Z,13.40
2018-09-22T17:36:52.585Z,13.40
2018-09-22T17:39:27.854Z,13.30
2018-09-22T17:41:57.463Z,13.20
2018-09-22T17:44:26.774Z,13.30
2018-09-22T17:46:58.153Z,13.30
2018-09-22T17:49:31.081Z,13.10
2018-09-22T17:52:00.316Z,13.00
2018-09-22T17:54:29.605Z,12.90
2018-09-22T17:56:59.051Z,13.00
2018-09-22T17:59:28.283Z,13.10
2018-09-22T18:02:01.382Z,13.20
2018-09-22T18:04:30.801Z,13.20
2018-09-22T18:07:00.183Z,13.10
2018-09-22T18:09:30.329Z,13.10
2018-09-22T18:11:59.826Z,13.10
2018-09-22T18:14:30.200Z,13.20
2018-09-22T18:17:00.380Z,13.00
2018-09-22T18:19:29.551Z,12.90
2018-09-22T18:21:58.864Z,12.80
2018-09-22T18:24:29.232Z,12.70
2018-09-22T18:26:58.481Z,12.70
2018-09-22T18:29:27.732Z,12.70
2018-09-22T18:31:56.916Z,12.60
2018-09-22T18:34:26.124Z,12.70
2018-09-22T18:36:55.396Z,12.70
2018-09-22T18:39:24.804Z,12.70
2018-09-22T18:41:54.469Z,12.60
2018-09-22T18:44:23.918Z,12.60
2018-09-22T18:46:52.862Z,12.60
2018-09-22T18:49:21.970Z,12.60
2018-09-22T18:51:51.082Z,12.50
2018-09-22T18:54:20.143Z,12.60
2018-09-22T18:56:50.343Z,12.70
2018-09-22T18:59:19.279Z,12.70
2018-09-22T19:01:48.325Z,12.60
2018-09-22T19:04:19.431Z,12.60
2018-09-22T19:06:48.385Z,12.60
2018-09-22T19:09:17.411Z,12.60
2018-09-22T19:11:46.482Z,12.50
2018-09-22T19:14:24.393Z,12.60
2018-09-22T19:17:19.501Z,12.60
2018-09-22T19:19:53.780Z,12.50
2018-09-22T19:22:26.589Z,12.50
2018-09-22T19:24:58.826Z,12.50
2018-09-22T19:27:32.082Z,12.40
2018-09-22T19:30:13.838Z,12.40
2018-09-22T19:32:57.492Z,12.40
2018-09-22T19:35:33.245Z,12.40
2018-09-22T19:38:12.187Z,12.30
2018-09-22T19:40:51.420Z,12.30
2018-09-22T19:43:32.465Z,12.30
2018-09-22T19:46:12.739Z,12.20
2018-09-22T19:48:56.484Z,12.20
2018-09-22T19:51:28.438Z,12.20
2018-09-22T19:53:59.760Z,12.20
2018-09-22T19:56:28.913Z,12.20
2018-09-22T19:58:57.904Z,12.20
2018-09-22T20:01:44.511Z,12.20
2018-09-22T20:04:13.721Z,12.20
2018-09-22T20:06:42.932Z,12.10
2018-09-22T20:09:18.158Z,12.10
2018-09-22T20:11:47.252Z,12.10
2018-09-22T20:14:16.453Z,12.10
2018-09-22T20:16:59.851Z,12.00
2018-09-22T20:19:29.204Z,12.00
2018-09-22T20:21:58.403Z,12.00
2018-09-22T20:24:27.373Z,12.00
2018-09-22T20:26:56.789Z,12.00
2018-09-22T20:29:27.001Z,11.90
2018-09-22T20:31:56.048Z,11.80
2018-09-22T20:34:25.192Z,11.90
2018-09-22T20:36:54.254Z,11.90
2018-09-22T20:39:29.751Z,11.90
2018-09-22T20:41:58.772Z,11.90
2018-09-22T20:44:27.961Z,11.90
2018-09-22T20:46:56.975Z,11.80
2018-09-22T20:49:33.357Z,11.80
2018-09-22T20:52:02.706Z,11.80
2018-09-22T20:54:31.815Z,11.80
2018-09-22T20:57:01.048Z,11.80
2018-09-22T20:59:30.697Z,11.80
2018-09-22T21:02:00.034Z,11.70
2018-09-22T21:04:29.217Z,11.70
2018-09-22T21:07:05.763Z,11.70
2018-09-22T21:09:34.992Z,11.60
2018-09-22T21:12:04.231Z,11.60
2018-09-22T21:14:33.501Z,11.50
2018-09-22T21:17:02.559Z,11.50
2018-09-22T21:19:31.702Z,11.40
2018-09-22T21:22:01.287Z,11.40
2018-09-22T21:24:30.403Z,11.40
2018-09-22T21:26:59.677Z,11.40
2018-09-22T21:29:28.802Z,11.40
2018-09-22T21:31:58.049Z,11.40
2018-09-22T21:34:27.290Z,11.40
2018-09-22T21:36:56.648Z,11.30
2018-09-22T21:39:25.952Z,11.20
2018-09-22T21:41:55.416Z,11.20
2018-09-22T21:44:24.583Z,11.20
2018-09-22T21:46:53.606Z,11.10
2018-09-22T21:49:22.973Z,11.10
2018-09-22T21:51:52.098Z,11.10
2018-09-22T21:54:21.276Z,11.10
2018-09-22T21:56:50.765Z,11.10
2018-09-22T21:59:20.015Z,11.00
2018-09-22T22:01:49.067Z,11.10
2018-09-22T22:04:18.299Z,11.10
2018-09-22T22:06:47.856Z,11.00
2018-09-22T22:09:17.065Z,11.00
2018-09-22T22:11:46.439Z,11.00
2018-09-22T22:14:15.560Z,11.00
2018-09-22T22:16:44.767Z,11.00
2018-09-22T22:19:14.022Z,11.00
2018-09-22T22:21:43.474Z,11.00
2018-09-22T22:24:12.634Z,11.00
2018-09-22T22:26:42.053Z,10.90
2018-09-22T22:29:11.236Z,10.90
2018-09-22T22:31:40.498Z,10.90
2018-09-22T22:34:09.754Z,10.90
2018-09-22T22:36:38.864Z,10.90
2018-09-22T22:39:08.394Z,10.90
2018-09-22T22:41:37.717Z,10.90
2018-09-22T22:44:06.886Z,10.90
2018-09-22T22:46:36.036Z,10.90
2018-09-22T22:49:05.106Z,10.90
2018-09-22T22:51:34.135Z,10.90
2018-09-22T22:54:03.004Z,10.90
2018-09-22T22:59:29.408Z,10.90
2018-09-22T23:01:58.483Z,10.90
2018-09-22T23:04:27.779Z,10.90
2018-09-22T23:06:56.848Z,11.00
2018-09-22T23:09:25.971Z,10.90
2018-09-22T23:11:54.821Z,10.90
2018-09-22T23:14:23.843Z,10.90
2018-09-22T23:16:53.382Z,10.90
2018-09-22T23:19:22.544Z,10.90
2018-09-22T23:21:51.673Z,10.90
2018-09-22T23:24:20.787Z,10.90
2018-09-22T23:26:50.100Z,10.90
2018-09-22T23:29:19.259Z,10.90
2018-09-22T23:31:48.397Z,10.90
2018-09-22T23:34:17.503Z,10.90
2018-09-22T23:36:46.767Z,10.90
2018-09-22T23:39:15.828Z,10.90
2018-09-22T23:41:45.000Z,10.90
2018-09-22T23:44:14.336Z,10.90
2018-09-22T23:46:43.322Z,10.90
2018-09-22T23:49:12.204Z,11.00
2018-09-22T23:51:41.079Z,11.00
2018-09-22T23:54:10.107Z,11.00
2018-09-22T23:56:39.123Z,11.00
2018-09-22T23:59:08.147Z,10.90
